sensor_id;sensor_type;location;lat;lon;timestamp;pressure;altitude;pressure_sealevel;temperature;humidity
11605;BME280;5858;43.076;25.626;2023-03-21T00:01:01;99048.25;;;8.84;75.71
11605;BME280;5858;43.076;25.626;2023-03-21T00:03:32;99194.91;;;9.84;75.99
11605;BME280;5858;43.076;25.626;2023-03-21T00:06:04;99218.91;;;9.92;76.00
11605;BME280;5858;43.076;25.626;2023-03-21T00:08:31;99173.25;;;9.64;75.71
11605;BME280;5858;43.076;25.626;2023-03-21T00:11:00;99132.13;;;9.50;75.91
11605;BME280;5858;43.076;25.626;2023-03-21T00:13:29;99117.81;;;9.43;75.39
11605;BME280;5858;43.076;25.626;2023-03-21T00:15:58;99195.00;;;9.75;76.09
11605;BME280;5858;43.076;25.626;2023-03-21T00:18:29;99095.50;;;9.21;76.18
11605;BME280;5858;43.076;25.626;2023-03-21T00:20:58;99002.09;;;8.61;76.20
11605;BME280;5858;43.076;25.626;2023-03-21T00:23:26;99181.63;;;9.75;76.75
11605;BME280;5858;43.076;25.626;2023-03-21T00:25:54;99162.56;;;9.64;75.95
11605;BME280;5858;43.076;25.626;2023-03-21T00:28:22;99055.78;;;9.03;76.51
11605;BME280;5858;43.076;25.626;2023-03-21T00:30:50;99166.16;;;9.71;76.96
11605;BME280;5858;43.076;25.626;2023-03-21T00:33:17;99147.63;;;9.55;77.05
11605;BME280;5858;43.076;25.626;2023-03-21T00:35:49;99121.00;;;9.46;77.36
11605;BME280;5858;43.076;25.626;2023-03-21T00:38:19;98973.13;;;8.58;77.14
11605;BME280;5858;43.076;25.626;2023-03-21T00:40:47;99123.88;;;9.60;76.70
11605;BME280;5858;43.076;25.626;2023-03-21T00:43:15;99166.34;;;9.69;77.05
11605;BME280;5858;43.076;25.626;2023-03-21T00:45:44;99034.25;;;9.05;77.04
11605;BME280;5858;43.076;25.626;2023-03-21T00:48:12;99023.13;;;8.78;77.31
11605;BME280;5858;43.076;25.626;2023-03-21T00:50:42;99082.78;;;9.23;77.09
11605;BME280;5858;43.076;25.626;2023-03-21T00:53:11;99063.91;;;9.10;76.92
11605;BME280;5858;43.076;25.626;2023-03-21T00:56:04;99155.28;;;9.72;76.21
11605;BME280;5858;43.076;25.626;2023-03-21T00:58:32;99038.94;;;9.03;75.70
11605;BME280;5858;43.076;25.626;2023-03-21T01:00:59;99146.25;;;9.73;75.79
11605;BME280;5858;43.076;25.626;2023-03-21T01:03:27;99139.81;;;9.83;75.79
11605;BME280;5858;43.076;25.626;2023-03-21T01:05:54;99147.00;;;9.82;74.96
11605;BME280;5858;43.076;25.626;2023-03-21T01:08:33;99058.69;;;9.31;75.35
11605;BME280;5858;43.076;25.626;2023-03-21T01:11:05;98990.00;;;8.73;75.63
11605;BME280;5858;43.076;25.626;2023-03-21T01:13:32;99133.56;;;9.75;76.02
11605;BME280;5858;43.076;25.626;2023-03-21T01:16:00;98979.31;;;8.73;75.66
11605;BME280;5858;43.076;25.626;2023-03-21T01:18:30;99075.97;;;9.58;75.59
11605;BME280;5858;43.076;25.626;2023-03-21T01:20:59;99029.13;;;9.18;75.70
11605;BME280;5858;43.076;25.626;2023-03-21T01:23:28;99087.13;;;9.62;75.71
11605;BME280;5858;43.076;25.626;2023-03-21T01:25:55;99126.81;;;9.79;75.97
11605;BME280;5858;43.076;25.626;2023-03-21T01:28:26;99078.06;;;9.48;76.07
11605;BME280;5858;43.076;25.626;2023-03-21T01:30:54;99015.13;;;9.16;75.92
11605;BME280;5858;43.076;25.626;2023-03-21T01:33:22;99089.22;;;9.66;75.67
11605;BME280;5858;43.076;25.626;2023-03-21T01:35:49;99068.75;;;9.44;76.10
11605;BME280;5858;43.076;25.626;2023-03-21T01:38:17;99112.28;;;9.82;76.54
11605;BME280;5858;43.076;25.626;2023-03-21T01:40:46;99028.44;;;9.01;77.71
11605;BME280;5858;43.076;25.626;2023-03-21T01:43:28;98936.00;;;8.48;77.12
11605;BME280;5858;43.076;25.626;2023-03-21T01:46:34;99118.97;;;9.63;77.57
11605;BME280;5858;43.076;25.626;2023-03-21T01:49:06;99092.25;;;9.49;77.45
11605;BME280;5858;43.076;25.626;2023-03-21T01:51:38;99058.03;;;9.29;77.31
11605;BME280;5858;43.076;25.626;2023-03-21T01:54:10;98931.69;;;8.47;77.48
11605;BME280;5858;43.076;25.626;2023-03-21T01:56:40;98949.31;;;8.56;77.84
11605;BME280;5858;43.076;25.626;2023-03-21T01:59:16;99022.88;;;8.88;77.17
11605;BME280;5858;43.076;25.626;2023-03-21T02:01:46;99115.56;;;9.69;77.19
11605;BME280;5858;43.076;25.626;2023-03-21T02:04:15;99114.28;;;9.65;77.37
11605;BME280;5858;43.076;25.626;2023-03-21T02:06:50;98998.84;;;8.88;77.87
11605;BME280;5858;43.076;25.626;2023-03-21T02:09:24;99047.69;;;9.11;78.28
11605;BME280;5858;43.076;25.626;2023-03-21T02:11:54;98979.00;;;8.53;78.56
11605;BME280;5858;43.076;25.626;2023-03-21T02:14:22;98933.22;;;8.18;78.70
11605;BME280;5858;43.076;25.626;2023-03-21T02:16:56;99090.97;;;9.22;79.06
11605;BME280;5858;43.076;25.626;2023-03-21T02:19:58;98912.25;;;8.15;78.94
11605;BME280;5858;43.076;25.626;2023-03-21T02:23:09;99094.47;;;9.22;78.91
11605;BME280;5858;43.076;25.626;2023-03-21T02:26:00;99108.59;;;9.31;79.02
11605;BME280;5858;43.076;25.626;2023-03-21T02:28:39;99104.63;;;9.27;78.97
11605;BME280;5858;43.076;25.626;2023-03-21T02:31:21;98900.88;;;8.21;78.58
11605;BME280;5858;43.076;25.626;2023-03-21T02:34:08;98939.31;;;8.27;78.55
11605;BME280;5858;43.076;25.626;2023-03-21T02:37:09;99040.72;;;8.88;79.50
11605;BME280;5858;43.076;25.626;2023-03-21T02:39:51;99068.47;;;9.01;79.57
11605;BME280;5858;43.076;25.626;2023-03-21T02:42:26;99078.16;;;9.02;79.62
11605;BME280;5858;43.076;25.626;2023-03-21T02:44:59;99107.88;;;9.37;78.98
11605;BME280;5858;43.076;25.626;2023-03-21T02:47:32;99097.47;;;9.42;78.91
11605;BME280;5858;43.076;25.626;2023-03-21T02:50:06;99034.19;;;8.90;79.33
11605;BME280;5858;43.076;25.626;2023-03-21T02:52:38;99029.94;;;8.81;79.84
11605;BME280;5858;43.076;25.626;2023-03-21T02:55:10;98929.97;;;8.08;79.75
11605;BME280;5858;43.076;25.626;2023-03-21T02:57:44;98989.03;;;8.43;80.21
11605;BME280;5858;43.076;25.626;2023-03-21T03:00:16;99064.50;;;8.74;79.88
11605;BME280;5858;43.076;25.626;2023-03-21T03:02:48;98936.78;;;8.11;79.62
11605;BME280;5858;43.076;25.626;2023-03-21T03:05:18;99118.91;;;9.34;79.31
11605;BME280;5858;43.076;25.626;2023-03-21T03:08:21;99087.91;;;8.87;79.70
11605;BME280;5858;43.076;25.626;2023-03-21T03:11:03;98935.41;;;8.15;79.26
11605;BME280;5858;43.076;25.626;2023-03-21T03:13:50;99140.25;;;9.34;79.18
11605;BME280;5858;43.076;25.626;2023-03-21T03:16:27;99119.53;;;9.21;78.74
11605;BME280;5858;43.076;25.626;2023-03-21T03:19:03;99016.84;;;8.71;78.38
11605;BME280;5858;43.076;25.626;2023-03-21T03:21:37;99074.13;;;8.98;78.10
11605;BME280;5858;43.076;25.626;2023-03-21T03:24:10;99075.28;;;9.04;78.20
11605;BME280;5858;43.076;25.626;2023-03-21T03:26:41;99101.00;;;9.20;78.50
11605;BME280;5858;43.076;25.626;2023-03-21T03:29:13;98957.78;;;8.29;78.07
11605;BME280;5858;43.076;25.626;2023-03-21T03:31:45;99106.16;;;9.21;77.98
11605;BME280;5858;43.076;25.626;2023-03-21T03:34:16;99075.00;;;8.99;77.65
11605;BME280;5858;43.076;25.626;2023-03-21T03:36:49;99056.19;;;8.92;77.74
11605;BME280;5858;43.076;25.626;2023-03-21T03:39:25;99034.03;;;8.69;77.68
11605;BME280;5858;43.076;25.626;2023-03-21T03:41:57;99093.91;;;9.12;77.13
11605;BME280;5858;43.076;25.626;2023-03-21T03:44:24;99134.38;;;9.38;77.64
11605;BME280;5858;43.076;25.626;2023-03-21T03:46:57;99023.06;;;8.64;78.05
11605;BME280;5858;43.076;25.626;2023-03-21T03:49:28;99122.69;;;9.39;77.66
11605;BME280;5858;43.076;25.626;2023-03-21T03:52:00;99030.00;;;8.73;77.47
11605;BME280;5858;43.076;25.626;2023-03-21T03:54:32;99124.81;;;9.44;77.29
11605;BME280;5858;43.076;25.626;2023-03-21T03:57:03;99019.97;;;8.75;77.13
11605;BME280;5858;43.076;25.626;2023-03-21T03:59:33;99052.97;;;8.97;76.85
11605;BME280;5858;43.076;25.626;2023-03-21T04:02:01;99087.03;;;9.18;76.69
11605;BME280;5858;43.076;25.626;2023-03-21T04:04:28;99056.66;;;8.96;76.39
11605;BME280;5858;43.076;25.626;2023-03-21T04:06:56;98953.34;;;8.21;76.40
11605;BME280;5858;43.076;25.626;2023-03-21T04:09:24;99109.13;;;9.26;76.35
11605;BME280;5858;43.076;25.626;2023-03-21T04:11:54;98986.91;;;8.38;77.75
11605;BME280;5858;43.076;25.626;2023-03-21T04:14:22;99129.84;;;9.24;77.84
11605;BME280;5858;43.076;25.626;2023-03-21T04:16:49;99123.53;;;9.40;77.90
11605;BME280;5858;43.076;25.626;2023-03-21T04:19:17;99118.72;;;9.35;77.96
11605;BME280;5858;43.076;25.626;2023-03-21T04:21:48;99070.13;;;9.02;78.09
11605;BME280;5858;43.076;25.626;2023-03-21T04:24:15;99036.47;;;8.78;77.06
11605;BME280;5858;43.076;25.626;2023-03-21T04:26:43;99137.84;;;9.24;77.18
11605;BME280;5858;43.076;25.626;2023-03-21T04:29:11;99077.19;;;8.72;78.27
11605;BME280;5858;43.076;25.626;2023-03-21T04:31:38;99115.19;;;8.97;78.55
11605;BME280;5858;43.076;25.626;2023-03-21T04:34:06;98992.25;;;8.30;78.34
11605;BME280;5858;43.076;25.626;2023-03-21T04:36:37;99124.84;;;9.21;77.87
11605;BME280;5858;43.076;25.626;2023-03-21T04:39:07;99134.84;;;9.42;77.36
11605;BME280;5858;43.076;25.626;2023-03-21T04:41:37;99061.13;;;9.03;77.10
11605;BME280;5858;43.076;25.626;2023-03-21T04:44:05;99079.66;;;9.20;76.54
11605;BME280;5858;43.076;25.626;2023-03-21T04:46:34;99134.28;;;9.69;76.40
11605;BME280;5858;43.076;25.626;2023-03-21T04:49:02;99059.59;;;9.24;76.02
11605;BME280;5858;43.076;25.626;2023-03-21T04:51:29;98999.78;;;8.95;76.15
11605;BME280;5858;43.076;25.626;2023-03-21T04:53:56;99066.75;;;9.46;75.89
11605;BME280;5858;43.076;25.626;2023-03-21T04:56:24;99074.44;;;9.41;76.24
11605;BME280;5858;43.076;25.626;2023-03-21T04:58:57;99090.97;;;9.59;75.91
11605;BME280;5858;43.076;25.626;2023-03-21T05:01:24;99092.91;;;9.80;75.41
11605;BME280;5858;43.076;25.626;2023-03-21T05:03:57;99124.91;;;10.03;76.95
11605;BME280;5858;43.076;25.626;2023-03-21T05:06:24;99077.25;;;9.48;77.41
11605;BME280;5858;43.076;25.626;2023-03-21T05:08:52;99003.53;;;9.09;77.75
11605;BME280;5858;43.076;25.626;2023-03-21T05:11:21;99075.06;;;9.28;78.73
11605;BME280;5858;43.076;25.626;2023-03-21T05:13:49;99064.09;;;9.23;78.54
11605;BME280;5858;43.076;25.626;2023-03-21T05:16:16;99002.03;;;8.69;79.27
11605;BME280;5858;43.076;25.626;2023-03-21T05:18:43;99102.19;;;9.17;80.40
11605;BME280;5858;43.076;25.626;2023-03-21T05:21:16;99000.44;;;8.60;80.28
11605;BME280;5858;43.076;25.626;2023-03-21T05:23:51;98927.28;;;8.31;80.12
11605;BME280;5858;43.076;25.626;2023-03-21T05:26:21;99100.00;;;9.58;79.03
11605;BME280;5858;43.076;25.626;2023-03-21T05:29:01;99035.94;;;9.21;78.78
11605;BME280;5858;43.076;25.626;2023-03-21T05:31:28;99070.47;;;9.37;78.81
11605;BME280;5858;43.076;25.626;2023-03-21T05:33:55;99118.34;;;9.91;78.42
11605;BME280;5858;43.076;25.626;2023-03-21T05:36:45;98951.34;;;8.69;78.28
11605;BME280;5858;43.076;25.626;2023-03-21T05:39:13;99130.25;;;10.18;77.10
11605;BME280;5858;43.076;25.626;2023-03-21T05:41:40;99041.22;;;9.73;77.18
11605;BME280;5858;43.076;25.626;2023-03-21T05:44:07;99041.69;;;9.76;76.41
11605;BME280;5858;43.076;25.626;2023-03-21T05:46:40;99126.88;;;10.75;75.48
11605;BME280;5858;43.076;25.626;2023-03-21T05:59:10;99053.91;;;10.87;70.90
11605;BME280;5858;43.076;25.626;2023-03-21T06:01:42;99058.19;;;10.82;70.85
11605;BME280;5858;43.076;25.626;2023-03-21T06:04:10;99163.63;;;11.66;72.35
11605;BME280;5858;43.076;25.626;2023-03-21T06:06:40;99116.09;;;11.53;71.50
11605;BME280;5858;43.076;25.626;2023-03-21T06:09:07;99117.75;;;11.54;69.71
11605;BME280;5858;43.076;25.626;2023-03-21T06:11:36;99086.66;;;11.32;68.79
11605;BME280;5858;43.076;25.626;2023-03-21T06:14:06;99158.34;;;12.01;69.56
11605;BME280;5858;43.076;25.626;2023-03-21T06:16:34;99161.69;;;12.09;69.04
11605;BME280;5858;43.076;25.626;2023-03-21T06:19:01;99137.94;;;12.06;66.96
11605;BME280;5858;43.076;25.626;2023-03-21T06:21:29;99075.41;;;11.71;66.78
11605;BME280;5858;43.076;25.626;2023-03-21T06:23:59;99147.88;;;12.47;68.47
11605;BME280;5858;43.076;25.626;2023-03-21T06:26:33;99143.56;;;12.52;67.53
11605;BME280;5858;43.076;25.626;2023-03-21T06:29:01;99116.69;;;12.39;66.00
11605;BME280;5858;43.076;25.626;2023-03-21T06:31:36;99116.06;;;12.37;67.86
11605;BME280;5858;43.076;25.626;2023-03-21T06:34:09;99148.34;;;12.57;68.16
11605;BME280;5858;43.076;25.626;2023-03-21T06:36:56;98983.25;;;11.72;67.39
11605;BME280;5858;43.076;25.626;2023-03-21T06:39:51;99026.00;;;12.28;65.72
11605;BME280;5858;43.076;25.626;2023-03-21T06:42:23;98987.78;;;12.06;64.42
11605;BME280;5858;43.076;25.626;2023-03-21T06:44:54;99073.22;;;12.77;64.17
11605;BME280;5858;43.076;25.626;2023-03-21T06:47:24;98995.72;;;12.41;62.90
11605;BME280;5858;43.076;25.626;2023-03-21T06:52:54;99158.72;;;13.87;62.00
11605;BME280;5858;43.076;25.626;2023-03-21T06:55:38;99126.22;;;13.95;61.35
11605;BME280;5858;43.076;25.626;2023-03-21T06:58:25;99046.84;;;13.60;59.45
11605;BME280;5858;43.076;25.626;2023-03-21T07:00:59;99163.81;;;14.48;59.45
11605;BME280;5858;43.076;25.626;2023-03-21T07:03:29;98988.34;;;13.48;58.38
11605;BME280;5858;43.076;25.626;2023-03-21T07:05:57;99056.13;;;13.83;58.86
11605;BME280;5858;43.076;25.626;2023-03-21T07:08:25;99011.06;;;13.72;58.68
11605;BME280;5858;43.076;25.626;2023-03-21T07:10:58;99073.56;;;14.32;56.54
11605;BME280;5858;43.076;25.626;2023-03-21T07:13:25;99003.81;;;13.79;56.14
11605;BME280;5858;43.076;25.626;2023-03-21T07:15:53;99096.22;;;14.63;57.60
11605;BME280;5858;43.076;25.626;2023-03-21T07:18:23;99137.22;;;15.09;56.30
11605;BME280;5858;43.076;25.626;2023-03-21T07:20:52;99109.41;;;15.16;53.05
11605;BME280;5858;43.076;25.626;2023-03-21T07:23:21;99145.13;;;15.36;53.02
11605;BME280;5858;43.076;25.626;2023-03-21T07:25:50;99065.97;;;14.99;53.03
11605;BME280;5858;43.076;25.626;2023-03-21T07:28:21;99034.75;;;14.91;51.72
11605;BME280;5858;43.076;25.626;2023-03-21T07:30:52;99078.22;;;15.51;53.07
11605;BME280;5858;43.076;25.626;2023-03-21T07:33:23;99077.44;;;15.76;52.77
11605;BME280;5858;43.076;25.626;2023-03-21T07:35:56;99173.38;;;16.51;50.25
11605;BME280;5858;43.076;25.626;2023-03-21T07:38:24;99135.44;;;16.28;48.63
11605;BME280;5858;43.076;25.626;2023-03-21T07:40:58;99161.72;;;16.76;48.02
11605;BME280;5858;43.076;25.626;2023-03-21T07:43:31;99091.72;;;16.19;48.12
11605;BME280;5858;43.076;25.626;2023-03-21T07:46:10;99132.94;;;16.63;48.67
11605;BME280;5858;43.076;25.626;2023-03-21T07:48:41;99163.59;;;16.75;47.93
11605;BME280;5858;43.076;25.626;2023-03-21T07:51:09;99012.22;;;15.97;48.07
11605;BME280;5858;43.076;25.626;2023-03-21T07:53:37;99107.16;;;16.67;46.61
11605;BME280;5858;43.076;25.626;2023-03-21T07:56:10;99115.50;;;16.65;47.31
11605;BME280;5858;43.076;25.626;2023-03-21T07:58:42;99078.09;;;16.62;46.20
11605;BME280;5858;43.076;25.626;2023-03-21T08:01:18;99164.06;;;17.02;45.89
11605;BME280;5858;43.076;25.626;2023-03-21T08:03:48;98986.06;;;16.16;47.54
11605;BME280;5858;43.076;25.626;2023-03-21T08:06:17;99151.47;;;17.26;48.24
11605;BME280;5858;43.076;25.626;2023-03-21T08:08:44;99125.31;;;17.08;46.09
11605;BME280;5858;43.076;25.626;2023-03-21T08:11:12;99038.50;;;16.38;45.59
11605;BME280;5858;43.076;25.626;2023-03-21T08:13:41;99126.50;;;17.12;45.11
11605;BME280;5858;43.076;25.626;2023-03-21T08:16:14;99011.97;;;16.35;45.68
11605;BME280;5858;43.076;25.626;2023-03-21T08:18:42;99149.41;;;17.10;45.03
11605;BME280;5858;43.076;25.626;2023-03-21T08:21:11;99035.03;;;16.49;43.92
11605;BME280;5858;43.076;25.626;2023-03-21T08:23:40;99117.91;;;17.04;44.45
11605;BME280;5858;43.076;25.626;2023-03-21T08:26:15;99104.69;;;16.95;44.69
11605;BME280;5858;43.076;25.626;2023-03-21T08:28:44;99127.94;;;16.96;44.54
11605;BME280;5858;43.076;25.626;2023-03-21T08:31:12;99118.28;;;16.89;44.94
11605;BME280;5858;43.076;25.626;2023-03-21T08:33:39;99141.09;;;17.23;44.10
11605;BME280;5858;43.076;25.626;2023-03-21T08:36:07;99147.31;;;17.53;44.13
11605;BME280;5858;43.076;25.626;2023-03-21T08:38:35;99133.34;;;17.68;42.97
11605;BME280;5858;43.076;25.626;2023-03-21T08:41:04;99115.25;;;17.69;42.29
11605;BME280;5858;43.076;25.626;2023-03-21T08:43:31;99114.19;;;17.93;42.12
11605;BME280;5858;43.076;25.626;2023-03-21T08:46:00;99093.69;;;17.97;40.93
11605;BME280;5858;43.076;25.626;2023-03-21T08:48:28;99049.56;;;17.85;40.38
11605;BME280;5858;43.076;25.626;2023-03-21T08:50:59;99103.28;;;18.40;40.15
11605;BME280;5858;43.076;25.626;2023-03-21T08:53:26;99000.25;;;17.94;39.24
11605;BME280;5858;43.076;25.626;2023-03-21T08:55:55;99030.28;;;18.33;38.73
11605;BME280;5858;43.076;25.626;2023-03-21T08:58:24;99117.72;;;19.09;37.82
11605;BME280;5858;43.076;25.626;2023-03-21T09:00:51;98983.50;;;18.38;37.63
11605;BME280;5858;43.076;25.626;2023-03-21T09:03:18;99030.22;;;18.85;37.31
11605;BME280;5858;43.076;25.626;2023-03-21T09:05:45;99095.38;;;19.18;37.21
11605;BME280;5858;43.076;25.626;2023-03-21T09:08:14;99098.16;;;19.24;37.14
11605;BME280;5858;43.076;25.626;2023-03-21T09:10:42;99014.03;;;18.73;37.15
11605;BME280;5858;43.076;25.626;2023-03-21T09:13:09;99097.53;;;19.33;38.02
11605;BME280;5858;43.076;25.626;2023-03-21T09:15:37;99086.94;;;19.48;38.08
11605;BME280;5858;43.076;25.626;2023-03-21T09:18:04;99080.28;;;19.39;37.41
11605;BME280;5858;43.076;25.626;2023-03-21T09:20:45;99024.31;;;18.88;36.87
11605;BME280;5858;43.076;25.626;2023-03-21T09:23:16;98963.41;;;18.05;38.16
11605;BME280;5858;43.076;25.626;2023-03-21T09:25:49;98957.81;;;17.72;39.32
11605;BME280;5858;43.076;25.626;2023-03-21T09:28:17;98954.16;;;17.43;40.03
11605;BME280;5858;43.076;25.626;2023-03-21T09:30:47;98931.59;;;17.14;40.88
11605;BME280;5858;43.076;25.626;2023-03-21T09:33:14;98988.75;;;17.17;41.77
11605;BME280;5858;43.076;25.626;2023-03-21T09:35:43;99125.59;;;17.83;42.51
11605;BME280;5858;43.076;25.626;2023-03-21T09:38:10;98958.06;;;16.58;42.98
11605;BME280;5858;43.076;25.626;2023-03-21T09:41:01;99013.19;;;16.69;42.25
11605;BME280;5858;43.076;25.626;2023-03-21T09:44:00;99035.34;;;16.89;41.93
11605;BME280;5858;43.076;25.626;2023-03-21T09:46:44;99105.16;;;17.46;42.09
11605;BME280;5858;43.076;25.626;2023-03-21T09:49:28;98950.94;;;16.46;42.71
11605;BME280;5858;43.076;25.626;2023-03-21T09:52:26;99047.97;;;17.07;43.65
11605;BME280;5858;43.076;25.626;2023-03-21T09:55:05;98944.25;;;16.48;42.31
11605;BME280;5858;43.076;25.626;2023-03-21T09:57:46;98988.53;;;16.65;43.65
11605;BME280;5858;43.076;25.626;2023-03-21T10:00:19;98977.91;;;16.64;43.05
11605;BME280;5858;43.076;25.626;2023-03-21T10:02:53;98960.56;;;16.72;43.44
11605;BME280;5858;43.076;25.626;2023-03-21T10:05:35;98969.13;;;16.68;43.01
11605;BME280;5858;43.076;25.626;2023-03-21T10:08:20;98980.19;;;16.67;43.33
11605;BME280;5858;43.076;25.626;2023-03-21T10:10:50;99090.50;;;17.65;43.11
11605;BME280;5858;43.076;25.626;2023-03-21T10:13:23;98968.34;;;16.80;43.72
11605;BME280;5858;43.076;25.626;2023-03-21T10:15:56;98991.91;;;17.26;43.79
11605;BME280;5858;43.076;25.626;2023-03-21T10:21:17;99004.50;;;17.44;42.59
11605;BME280;5858;43.076;25.626;2023-03-21T10:23:45;98959.66;;;17.01;43.30
11605;BME280;5858;43.076;25.626;2023-03-21T10:26:16;98933.69;;;17.00;43.31
11605;BME280;5858;43.076;25.626;2023-03-21T10:28:53;98955.81;;;17.09;42.95
11605;BME280;5858;43.076;25.626;2023-03-21T10:31:37;98992.97;;;17.60;42.85
11605;BME280;5858;43.076;25.626;2023-03-21T10:34:29;99083.66;;;18.33;42.55
11605;BME280;5858;43.076;25.626;2023-03-21T10:37:31;98951.69;;;17.53;41.99
11605;BME280;5858;43.076;25.626;2023-03-21T10:40:30;98927.81;;;17.38;41.70
11605;BME280;5858;43.076;25.626;2023-03-21T10:53:32;98953.81;;;18.14;41.32
11605;BME280;5858;43.076;25.626;2023-03-21T10:56:08;98939.50;;;18.02;40.80
11605;BME280;5858;43.076;25.626;2023-03-21T10:58:46;98910.84;;;17.78;40.48
11605;BME280;5858;43.076;25.626;2023-03-21T11:01:26;99070.88;;;18.85;40.49
11605;BME280;5858;43.076;25.626;2023-03-21T11:04:04;99013.59;;;18.65;40.36
11605;BME280;5858;43.076;25.626;2023-03-21T11:06:37;99022.88;;;18.69;40.18
11605;BME280;5858;43.076;25.626;2023-03-21T11:09:21;99046.06;;;18.76;40.05
11605;BME280;5858;43.076;25.626;2023-03-21T11:11:51;98999.84;;;18.43;39.63
11605;BME280;5858;43.076;25.626;2023-03-21T11:14:35;99086.63;;;19.00;39.46
11605;BME280;5858;43.076;25.626;2023-03-21T11:17:19;98999.00;;;18.54;39.66
11605;BME280;5858;43.076;25.626;2023-03-21T11:19:50;98914.25;;;18.13;39.73
11605;BME280;5858;43.076;25.626;2023-03-21T11:22:24;99060.63;;;19.49;39.54
11605;BME280;5858;43.076;25.626;2023-03-21T11:25:00;98978.88;;;19.29;39.61
11605;BME280;5858;43.076;25.626;2023-03-21T11:27:36;98913.06;;;19.16;38.61
11605;BME280;5858;43.076;25.626;2023-03-21T11:30:59;98909.72;;;18.76;38.85
11605;BME280;5858;43.076;25.626;2023-03-21T11:33:52;98997.50;;;19.54;38.44
11605;BME280;5858;43.076;25.626;2023-03-21T11:36:33;98873.16;;;18.62;38.85
11605;BME280;5858;43.076;25.626;2023-03-21T11:39:14;98890.72;;;19.09;38.79
11605;BME280;5858;43.076;25.626;2023-03-21T11:42:24;99050.06;;;19.86;38.81
11605;BME280;5858;43.076;25.626;2023-03-21T11:45:26;99033.16;;;19.29;39.68
11605;BME280;5858;43.076;25.626;2023-03-21T11:48:13;98921.84;;;18.28;40.63
11605;BME280;5858;43.076;25.626;2023-03-21T11:50:46;99018.75;;;18.95;40.86
11605;BME280;5858;43.076;25.626;2023-03-21T11:53:39;98974.88;;;18.52;41.35
11605;BME280;5858;43.076;25.626;2023-03-21T11:56:28;99008.19;;;18.81;41.69
11605;BME280;5858;43.076;25.626;2023-03-21T12:02:49;98890.56;;;17.92;41.68
11605;BME280;5858;43.076;25.626;2023-03-21T12:05:53;98961.69;;;18.44;41.35
11605;BME280;5858;43.076;25.626;2023-03-21T12:08:34;99004.56;;;18.76;41.11
11605;BME280;5858;43.076;25.626;2023-03-21T12:11:23;98893.75;;;17.89;41.64
11605;BME280;5858;43.076;25.626;2023-03-21T12:14:08;98893.00;;;18.05;41.58
11605;BME280;5858;43.076;25.626;2023-03-21T12:16:52;98902.03;;;18.11;41.18
11605;BME280;5858;43.076;25.626;2023-03-21T12:19:45;99002.50;;;18.66;42.21
11605;BME280;5858;43.076;25.626;2023-03-21T12:22:30;98846.41;;;17.63;41.85
11605;BME280;5858;43.076;25.626;2023-03-21T12:25:09;98879.81;;;17.97;41.53
11605;BME280;5858;43.076;25.626;2023-03-21T12:27:54;98842.78;;;17.98;41.30
11605;BME280;5858;43.076;25.626;2023-03-21T12:30:35;98828.94;;;17.82;40.89
11605;BME280;5858;43.076;25.626;2023-03-21T12:33:16;98898.09;;;17.90;41.32
11605;BME280;5858;43.076;25.626;2023-03-21T12:35:54;98841.78;;;17.75;41.33
11605;BME280;5858;43.076;25.626;2023-03-21T12:38:39;98921.41;;;18.48;40.89
11605;BME280;5858;43.076;25.626;2023-03-21T12:41:23;98921.59;;;18.58;40.96
11605;BME280;5858;43.076;25.626;2023-03-21T12:43:57;98917.88;;;18.47;40.73
11605;BME280;5858;43.076;25.626;2023-03-21T12:46:27;98879.22;;;18.07;41.04
11605;BME280;5858;43.076;25.626;2023-03-21T12:49:00;98923.97;;;18.26;41.81
11605;BME280;5858;43.076;25.626;2023-03-21T12:51:34;98846.50;;;17.97;41.87
11605;BME280;5858;43.076;25.626;2023-03-21T12:54:09;98905.44;;;18.35;41.05
11605;BME280;5858;43.076;25.626;2023-03-21T12:56:44;98769.66;;;17.41;41.87
11605;BME280;5858;43.076;25.626;2023-03-21T12:59:32;98724.78;;;17.28;42.02
11605;BME280;5858;43.076;25.626;2023-03-21T13:02:16;98759.25;;;17.21;42.72
11605;BME280;5858;43.076;25.626;2023-03-21T13:04:51;98754.47;;;17.11;43.32
11605;BME280;5858;43.076;25.626;2023-03-21T13:07:28;98852.75;;;17.69;43.62
11605;BME280;5858;43.076;25.626;2023-03-21T13:10:05;98926.19;;;18.29;43.48
11605;BME280;5858;43.076;25.626;2023-03-21T13:12:58;98778.88;;;17.28;43.47
11605;BME280;5858;43.076;25.626;2023-03-21T13:15:41;98752.50;;;17.35;41.97
11605;BME280;5858;43.076;25.626;2023-03-21T13:18:31;98935.19;;;18.46;42.62
11605;BME280;5858;43.076;25.626;2023-03-21T13:21:16;98815.97;;;17.84;41.94
11605;BME280;5858;43.076;25.626;2023-03-21T13:24:03;98894.56;;;18.18;41.83
11605;BME280;5858;43.076;25.626;2023-03-21T13:26:40;98807.56;;;17.69;41.54
11605;BME280;5858;43.076;25.626;2023-03-21T13:29:21;98911.84;;;18.29;41.20
11605;BME280;5858;43.076;25.626;2023-03-21T13:31:51;98748.59;;;17.43;40.82
11605;BME280;5858;43.076;25.626;2023-03-21T13:34:31;98859.72;;;18.21;40.67
11605;BME280;5858;43.076;25.626;2023-03-21T13:37:00;98910.84;;;18.80;39.87
11605;BME280;5858;43.076;25.626;2023-03-21T13:39:48;98841.28;;;18.52;40.35
11605;BME280;5858;43.076;25.626;2023-03-21T13:42:22;98931.28;;;19.21;39.61
11605;BME280;5858;43.076;25.626;2023-03-21T13:44:56;98901.72;;;18.86;40.30
11605;BME280;5858;43.076;25.626;2023-03-21T13:47:41;98872.19;;;18.68;41.06
11605;BME280;5858;43.076;25.626;2023-03-21T13:50:28;98850.44;;;18.34;41.39
11605;BME280;5858;43.076;25.626;2023-03-21T13:53:26;98902.31;;;18.71;41.47
11605;BME280;5858;43.076;25.626;2023-03-21T13:56:19;98723.88;;;17.79;41.30
11605;BME280;5858;43.076;25.626;2023-03-21T13:58:52;98868.78;;;18.77;41.59
11605;BME280;5858;43.076;25.626;2023-03-21T14:01:34;98895.81;;;18.89;42.28
11605;BME280;5858;43.076;25.626;2023-03-21T14:04:08;98904.31;;;18.93;42.05
11605;BME280;5858;43.076;25.626;2023-03-21T14:06:41;98867.72;;;18.78;41.91
11605;BME280;5858;43.076;25.626;2023-03-21T14:09:17;98899.59;;;19.05;41.04
11605;BME280;5858;43.076;25.626;2023-03-21T14:11:47;98868.06;;;18.82;41.00
11605;BME280;5858;43.076;25.626;2023-03-21T14:14:18;98869.28;;;18.74;41.34